航空気象通報

ウインドサーファーのための航空気象通報による風予報です。

7/31-8/2の航空気象通報

2018年07月31日 23時37分43秒 | TAF
羽田空港
TAF RJTT 311105Z 3112/0118 20011KT 9999 FEW015
BECMG 3119/3121 33004KT
BECMG 3122/0100 08005KT
BECMG 0100/0103 18015KT
BECMG 0115/0118 20005KT
日本時間31日21時-1日04時:200度から11ノットの風
04-06時:風が変化
06-07時:330度から4ノットの風
07-09時:風が変化
09時:080度から5ノットの風
09-12時:風が変化
12-24時:180度から15ノットの風
2日00-03時:風が変化
03時:200度から5ノットの風


静岡空港
TAF RJNS 311105Z 3112/0118 26006KT 9999 FEW010 SCT020
日本時間31日21時-2日03時:260度から6ノットの風


福岡空港
TAF RJFF 311106Z 3112/0118 08007KT 9999 FEW020 SCT045
日本時間31日21時-2日03時:080度から7ノットの風


那覇空港
TAF AMD ROAH 311348Z 3113/0118 28006KT 9999 FEW015 SCT025
TEMPO 3113/3116 4000 TSRA FEW010 BKN015 FEW020CB
BECMG 3115/3117 25013KT
TEMPO 0103/0106 4000 SHRA FEW008 BKN015 FEW020CB
TEMPO 0106/0109 3000 TSRA FEW008 BKN015 FEW020CB
TEMPO 0109/0112 4000 SHRA FEW008 BKN015 FEW020CB
TEMPO 0112/0118 3000 TSRA FEW008 BKN015 FEW020CB
日本時間31日21-24時:280度から6ノットの風
1日00-02時:風が変化
02時-2日03時:250度から13ノットの風

但し、31日22時-1日01時の間:時々
但し、1日12-15時の間:時々
但し、1日15-18時の間:時々
但し、1日18-21時の間:時々
但し、1日21時-2日03時の間:時々

石垣空港
TAF ROIG 311111Z 3112/0118 27004KT 9999 FEW015 SCT025
日本時間31日21時-2日03時:270度から4ノットの風


マウイのカフルイ空港
PHOG 311354Z 3114/0112 VRB05KT P6SM VCSH FEW030 BKN050
FM312000 06018G28KT P6SM FEW030 SCT050 BKN250
FM010500 06013G20KT P6SM VCSH FEW030 SCT050
ハワイ時間31日02-10時:風向不定5ノットの風
10-19時:060度から18ノット、突風28ノット
19時-1日02時:060度から13ノット、突風20ノット


サイパン空港
PGSN 311304Z 3113/0112 25005KT P6SM VCSH SCT020 SCT040 BKN080
TEMPO 3113/3117 26011G20KT 2SM SHRA BKN016 OVC040
マリアナ時間31日23時-1日22時:250度から5ノットの風
但し、31日23時-1日03時の間:時々260度から11ノット、突風20ノット
コメント

7/29-7/31の航空気象通報

2018年07月29日 21時33分24秒 | TAF
羽田空港
TAF RJTT 291109Z 2912/3018 10008KT 8000 FEW008 BKN015
BECMG 2914/2916 05010KT
TEMPO 2916/2921 4000 -SHRA BR FEW005 BKN008
BECMG 3000/3003 07008KT
日本時間29日21-23時:100度から8ノットの風
23時-30日01時:風が変化
01-09時:050度から10ノットの風
09-12時:風が変化
12時-31日03時:070度から8ノットの風

但し、30日01-06時の間:時々

静岡空港
TAF RJNS 291109Z 2912/3018 04005KT 9999 FEW010 SCT030
BECMG 2913/2915 02004KT
BECMG 2921/2923 06010KT
日本時間29日21-22時:040度から5ノットの風
22-24時:風が変化
30日00-06時:020度から4ノットの風
06-08時:風が変化
08時-31日03時:060度から10ノットの風


福岡空港
TAF RJFF 291106Z 2912/3018 03011KT 8000 -SHRA FEW005 SCT010 BKN015
BECMG 2912/2914 09009KT
TEMPO 3003/3009 08015G25KT
日本時間29日21時:030度から11ノットの風
21-23時:風が変化
23時-31日03時:090度から9ノットの風
但し、30日12-18時の間:時々080度から15ノット、突風25ノット


那覇空港
TAF ROAH 291107Z 2912/3018 30008KT 9999 FEW015 SCT025
BECMG 3012/3015 26010KT
日本時間29日21時-30日21時:300度から8ノットの風
21-24時:風が変化
31日00-03時:260度から10ノットの風


石垣空港
TAF ROIG 291111Z 2912/3018 28003KT 9999 FEW015 SCT025
日本時間29日21時-31日03時:280度から3ノットの風


マウイのカフルイ空港
PHOG 291139Z 2912/3012 05011G17KT P6SM BKN250
FM292000 05015G23KT P6SM FEW030 SCT050
FM300400 05013G21KT P6SM FEW030 SCT050
FM301000 06008KT P6SM BKN250 AMD LTD TO VIS AND WIND TIL 291600
ハワイ時間29日02-10時:050度から11ノット、突風17ノット

10-18時:050度から15ノット、突風23ノット
18-24時:050度から13ノット、突風21ノット
30日00-02時:060度から8ノットの風


サイパン空港
PGSN 291133Z 2912/3012 20007KT P6SM VCSH FEW025 SCT040 BKN110
マリアナ時間29日22時-30日22時:200度から7ノットの風
コメント

7/28-7/30の航空気象通報

2018年07月29日 00時24分20秒 | TAF
羽田空港
TAF RJTT 281110Z 2812/2918 09024KT 9999 FEW015 BKN030
TEMPO 2812/2815 09026G36KT
BECMG 2815/2817 10010KT
BECMG 2903/2906 16010KT
BECMG 2912/2915 08006KT
日本時間28日21-24時:090度から24ノットの風
但し、21-24時の間:時々090度から26ノット、突風36ノット
29日00-02時:風が変化
02-12時:100度から10ノットの風
12-15時:風が変化
15-21時:160度から10ノットの風
21-24時:風が変化
30日00-03時:080度から6ノットの風


静岡空港
TAF RJNS 281108Z 2812/2918 08038G50KT 3000 -SHRA BR FEW005 BKN008
TEMPO 2812/2814 1500 +TSRA BR FEW003 BKN004 FEW015CB
BECMG 2813/2815 13020G33KT
BECMG 2817/2819 12010KT 8000 NSW FEW005 BKN012
日本時間28日21-22時:340度から4ノットの風
22-24時:風が変化
29日00-02時:130度から20ノット、突風33ノット
02-04時:風が変化
04時-30日03時:120度から10ノットの風
、29日02-04時の後、
但し、28日21-23時の間:時々

福岡空港
TAF RJFF 281107Z 2812/2918 36012KT 9999 FEW015 SCT020
TEMPO 2903/2909 31020G30KT
TEMPO 2909/2912 32025G35KT 3000 TSRA BR FEW005 SCT010 BKN015 FEW025CB
BECMG 2912/2915 12012KT
TEMPO 2912/2918 12015G25KT 4000 SHRA BR
日本時間28日21時-29日21時:360度から12ノットの風
但し、29日12-18時の間:時々310度から20ノット、突風30ノット
但し、29日18-21時の間:時々320度から25ノット、突風35ノット
21-24時:風が変化
30日00-03時:120度から12ノットの風

但し、29日18-21時の間:時々
但し、29日21時-30日03時の間:時々

那覇空港
TAF ROAH 281105Z 2812/2918 33008KT 9999 FEW015
日本時間28日21時-30日03時:330度から8ノットの風


石垣空港
TAF ROIG 281108Z 2812/2918 34004KT 9999 FEW020
日本時間28日21時-30日03時:340度から4ノットの風


マウイのカフルイ空港
PHOG 281120Z 2812/2912 05010G18KT P6SM VCSH FEW030 SCT050 BKN250
FM282000 05017G25KT P6SM FEW030 SCT050 BKN250
FM290600 05012G20KT P6SM FEW030 SCT050 BKN250 AMD LTD TO VIS AND WIND TIL 281600
ハワイ時間28日02-10時:050度から10ノット、突風18ノット
10-20時:050度から17ノット、突風25ノット
20時-29日02時:050度から12ノット、突風20ノット


サイパン空港
PGSN 281134Z 2812/2912 VRB05KT P6SM VCSH SCT018 SCT050
マリアナ時間28日22時-29日22時:風向不定5ノットの風

コメント

7/27-7/29の航空気象通報

2018年07月27日 23時38分49秒 | TAF
羽田空港
TAF RJTT 271105Z 2712/2818 01020KT 8000 FEW008 BKN012
TEMPO 2715/2718 4000 -SHRA BR FEW005 BKN008
BECMG 2803/2806 05034G46KT
TEMPO 2806/2812 2000 +SHRA BR FEW003 BKN005
TEMPO 2812/2815 3000 SHRA BR FEW005 BKN008
BECMG 2812/2815 16014KT
日本時間27日21時-28日12時:010度から20ノットの風
12-15時:風が変化
15-21時:050度から34ノット、突風46ノット
21-24時:風が変化
29日00-03時:160度から14ノットの風

但し、28日00-03時の間:時々
但し、28日15-24時の間:時々

静岡空港
TAF RJNS 271105Z 2712/2818 03006KT 8000 -SHRA FEW008 BKN020
TEMPO 2715/2721 4000 SHRA BR FEW005 BKN008
BECMG 2803/2806 03026G36KT
TEMPO 2803/2809 03036G50KT 2000 +TSRA BR FEW003 BKN005 FEW020CB
BECMG 2809/2812 10025KT
TEMPO 2809/2818 3000 SHRA BR FEW003 BKN005
日本時間27日21時-28日12時:030度から6ノットの風
12-15時:風が変化
15-18時:030度から26ノット、突風36ノット
但し、12-18時の間:時々030度から36ノット、突風50ノット
18-21時:風が変化
21時-29日03時:100度から25ノットの風

但し、28日12-18時の間:時々

福岡空港
TAF RJFF 271106Z 2712/2818 36005KT 9999 FEW020
BECMG 2803/2806 36015KT
日本時間27日21時-28日12時:360度から5ノットの風
12-15時:風が変化
15時-29日03時:360度から15ノットの風


那覇空港
TAF ROAH 271108Z 2712/2818 01005KT 9000 FEW015 SCT035
BECMG 2815/2818 31010KT
日本時間27日21時-28日24時:010度から5ノットの風
29日00-03時:風が変化
03時:310度から10ノットの風


石垣空港
TAF ROIG 271113Z 2712/2818 36003KT 9999 FEW015
日本時間27日21時-29日03時:360度から3ノットの風


マウイのカフルイ空港
PHOG 271134Z 2712/2812 16005KT P6SM FEW020 FEW045 SCT150
FM272000 06018G26KT P6SM FEW025 SCT045 SCT200
FM280600 05011G18KT P6SM SCT025 SCT050 AMD LTD TO VIS AND WIND TIL 271600
ハワイ時間27日02-10時:160度から5ノットの風
10-20時:060度から18ノット、突風26ノット
20時-28日02時:050度から11ノット、突風18ノット


サイパン空港
PGSN 271122Z 2712/2812 22011KT P6SM VCSH SCT020 SCT040
マリアナ時間27日22時-28日22時:220度から11ノットの風
コメント

7/23-7/25の航空気象通報

2018年07月23日 23時32分52秒 | TAF
羽田空港
TAF RJTT 231105Z 2312/2418 16008KT 9999 FEW030
BECMG 2318/2320 04006KT
BECMG 2400/2403 12010KT
BECMG 2412/2415 05010KT
日本時間23日21時-24日03時:160度から8ノットの風
03-05時:風が変化
05-09時:040度から6ノットの風
09-12時:風が変化
12-21時:120度から10ノットの風
21-24時:風が変化
25日00-03時:050度から10ノットの風


静岡空港
TAF RJNS 231106Z 2312/2418 08004KT 9999 FEW020
BECMG 2312/2314 30005KT
BECMG 2400/2403 16008KT
BECMG 2412/2415 32004KT
日本時間23日21時:080度から4ノットの風
21-23時:風が変化
23時-24日09時:300度から5ノットの風
09-12時:風が変化
12-21時:160度から8ノットの風
21-24時:風が変化
25日00-03時:320度から4ノットの風


福岡空港
TAF RJFF 231109Z 2312/2418 14003KT 9999 FEW040
BECMG 2400/2403 33006KT
BECMG 2412/2415 14003KT
日本時間23日21時-24日09時:140度から3ノットの風
09-12時:風が変化
12-21時:330度から6ノットの風
21-24時:風が変化
25日00-03時:140度から3ノットの風


那覇空港
TAF ROAH 231107Z 2312/2418 15010KT 9999 FEW010 SCT020
日本時間23日21時-25日03時:150度から10ノットの風


石垣空港
TAF ROIG 231112Z 2312/2418 16008KT 9999 FEW010 BKN020
BECMG 2412/2415 12006KT
日本時間23日21時-24日21時:160度から8ノットの風
21-24時:風が変化
25日00-03時:120度から6ノットの風


マウイのカフルイ空港
PHOG 231401Z 2314/2412 05006KT P6SM VCSH SCT006 OVC025
TEMPO 2314/2316 5SM BR BKN009 OVC015
FM232000 05018G26KT P6SM SCT030 BKN050
FM240600 06012KT P6SM SCT030 SCT050 AMD LTD TO VIS AND WIND TIL 231600
ハワイ時間23日02-10時:050度から6ノットの風
10-20時:050度から18ノット、突風26ノット
20時-24日02時:060度から12ノットの風


サイパン空港
PGSN 231135Z 2312/2412 22007KT P6SM VCSH SCT025
マリアナ時間23日22時-24日22時:220度から7ノットの風
コメント